Terminal Aerodrome Forecast
Issued by NWS Wilmington, OH

Current Version | Previous Version | Graphics & Text | Print | Product List | Glossary On
Versions: 1 2 3 4 5 6 7 8 9 10 11 12 13 14 15 16 17
593
FTUS41 KILN 241734
TAFDAY
TAF
KDAY 241734Z 2418/2518 22010KT P6SM BKN035 BKN150 BKN200
     FM250100 23004KT P6SM SCT150 BKN250
     FM251300 24006KT P6SM BKN250
     FM251600 25008KT P6SM VCTS BKN040CB=

USA.gov is the U.S. government's official web portal to all federal, state and local government web resources and services.